createdAt,value
2023-01-09T00:00:12.242Z,22.20
2023-01-09T00:02:42.127Z,22.20
2023-01-09T00:05:13.598Z,22.20
2023-01-09T00:07:42.825Z,22.20
2023-01-09T00:10:13.453Z,22.20
2023-01-09T00:12:42.784Z,22.20
2023-01-09T00:15:13.028Z,22.20
2023-01-09T00:17:42.677Z,22.20
2023-01-09T00:20:12.765Z,22.30
2023-01-09T00:22:41.898Z,22.30
2023-01-09T00:25:12.087Z,22.30
2023-01-09T00:27:41.467Z,22.30
2023-01-09T00:30:11.727Z,22.30
2023-01-09T00:32:43.749Z,22.30
2023-01-09T00:35:18.696Z,22.30
2023-01-09T00:37:47.989Z,22.40
2023-01-09T00:40:19.092Z,22.40
2023-01-09T00:42:53.196Z,22.40
2023-01-09T00:45:30.267Z,22.40
2023-01-09T00:48:05.289Z,22.50
2023-01-09T00:50:36.512Z,22.50
2023-01-09T00:53:15.165Z,22.50
2023-01-09T00:55:44.340Z,22.50
2023-01-09T00:58:13.758Z,22.60
2023-01-09T01:05:45.690Z,22.60
2023-01-09T01:08:16.623Z,22.60
2023-01-09T01:10:47.419Z,22.70
2023-01-09T01:13:17.790Z,22.70
2023-01-09T01:15:48.570Z,22.70
2023-01-09T01:18:17.841Z,22.70
2023-01-09T01:20:47.503Z,22.80
2023-01-09T01:23:16.773Z,22.80
2023-01-09T01:25:45.991Z,22.80
2023-01-09T01:28:15.374Z,22.80
2023-01-09T01:30:45.437Z,22.90
2023-01-09T01:33:15.203Z,22.90
2023-01-09T01:35:44.404Z,23.00
2023-01-09T01:38:13.651Z,23.00
2023-01-09T01:40:42.877Z,23.10
2023-01-09T01:43:14.657Z,23.10
2023-01-09T01:45:44.314Z,23.10
2023-01-09T01:48:31.650Z,23.10
2023-01-09T01:51:05.638Z,23.10
2023-01-09T01:53:41.847Z,23.20
2023-01-09T01:56:17.361Z,23.20
2023-01-09T01:59:02.682Z,23.20
2023-01-09T02:01:33.950Z,23.30
2023-01-09T02:04:04.448Z,23.40
2023-01-09T02:06:36.648Z,23.40
2023-01-09T02:09:07.674Z,23.40
2023-01-09T02:11:36.970Z,23.50
2023-01-09T02:14:06.582Z,23.50
2023-01-09T02:17:03.934Z,23.60
2023-01-09T02:19:55.692Z,23.70
2023-01-09T02:22:46.079Z,23.70
2023-01-09T02:25:19.683Z,23.80
2023-01-09T02:28:18.272Z,23.80
2023-01-09T02:31:11.100Z,23.80
2023-01-09T02:34:01.477Z,23.80
2023-01-09T02:36:41.668Z,23.90
2023-01-09T02:39:29.094Z,24.00
2023-01-09T02:42:03.622Z,24.00
2023-01-09T02:44:34.479Z,24.00
2023-01-09T02:47:21.477Z,24.00
2023-01-09T02:50:00.289Z,24.10
2023-01-09T02:52:53.101Z,24.10
2023-01-09T02:55:49.803Z,24.20
2023-01-09T02:58:20.973Z,24.30
2023-01-09T03:01:03.872Z,24.30
2023-01-09T03:04:08.916Z,24.40
2023-01-09T03:06:55.851Z,24.40
2023-01-09T03:09:29.123Z,24.40
2023-01-09T03:12:06.642Z,24.40
2023-01-09T03:14:37.172Z,24.50
2023-01-09T03:17:13.288Z,24.50
2023-01-09T03:19:44.289Z,24.50
2023-01-09T03:22:14.105Z,24.50
2023-01-09T03:24:43.360Z,24.60
2023-01-09T03:27:12.871Z,24.60
2023-01-09T03:29:42.017Z,24.70
2023-01-09T03:32:11.241Z,24.80
2023-01-09T03:34:40.527Z,24.80
2023-01-09T03:37:09.776Z,24.90
2023-01-09T03:39:39.133Z,24.90
2023-01-09T03:42:08.389Z,24.90
2023-01-09T03:44:37.572Z,25.00
2023-01-09T03:47:06.849Z,25.00
2023-01-09T03:49:36.107Z,25.00
2023-01-09T03:52:05.418Z,25.00
2023-01-09T03:54:34.672Z,25.00
2023-01-09T03:57:04.164Z,25.10
2023-01-09T03:59:33.385Z,25.10
2023-01-09T04:02:03.971Z,25.10
2023-01-09T04:04:33.553Z,25.20
2023-01-09T04:07:02.814Z,25.20
2023-01-09T04:09:32.139Z,25.30
2023-01-09T04:12:01.516Z,25.30
2023-01-09T04:14:30.949Z,25.30
2023-01-09T04:17:00.142Z,25.40
2023-01-09T04:19:29.387Z,25.40
2023-01-09T04:21:58.599Z,25.40
2023-01-09T04:24:27.769Z,25.50
2023-01-09T04:26:57.955Z,25.50
2023-01-09T04:29:27.235Z,25.60
2023-01-09T04:31:56.668Z,25.60
2023-01-09T04:34:27.591Z,25.60
2023-01-09T04:36:57.197Z,25.70
2023-01-09T04:39:26.518Z,25.80
2023-01-09T04:41:55.911Z,25.90
2023-01-09T04:44:28.076Z,25.90
2023-01-09T04:47:00.456Z,26.00
2023-01-09T04:49:29.767Z,26.00
2023-01-09T04:51:59.201Z,26.10
2023-01-09T04:54:29.353Z,26.20
2023-01-09T04:56:58.914Z,26.20
2023-01-09T04:59:28.175Z,26.30
2023-01-09T05:01:59.947Z,26.30
2023-01-09T05:04:30.500Z,26.30
2023-01-09T05:07:00.116Z,26.30
2023-01-09T05:09:29.656Z,26.40
2023-01-09T05:12:00.054Z,26.40
2023-01-09T05:14:30.529Z,26.40
2023-01-09T05:19:40.983Z,26.40
2023-01-09T05:22:10.587Z,26.50
2023-01-09T05:24:39.960Z,26.50
2023-01-09T05:27:09.437Z,26.60
2023-01-09T05:29:38.709Z,26.60
2023-01-09T05:32:08.007Z,26.60
2023-01-09T05:34:37.274Z,26.60
2023-01-09T05:37:06.617Z,26.60
2023-01-09T05:39:35.877Z,26.60
2023-01-09T05:42:05.175Z,26.60
2023-01-09T05:44:35.329Z,26.70
2023-01-09T05:47:15.179Z,26.70
2023-01-09T05:49:44.532Z,26.70
2023-01-09T05:52:13.842Z,26.80
2023-01-09T05:54:43.145Z,26.80
2023-01-09T05:57:12.415Z,26.80
2023-01-09T05:59:42.960Z,26.80
2023-01-09T06:02:12.755Z,26.80
2023-01-09T06:04:49.473Z,26.90
2023-01-09T06:07:23.518Z,27.00
2023-01-09T06:09:52.805Z,27.00
2023-01-09T06:12:22.317Z,27.10
2023-01-09T06:14:51.669Z,27.10
2023-01-09T06:17:21.135Z,27.10
2023-01-09T06:19:53.467Z,27.10
2023-01-09T06:22:26.199Z,27.20
2023-01-09T06:24:55.577Z,27.20
2023-01-09T06:27:24.926Z,27.30
2023-01-09T06:29:54.214Z,27.30
2023-01-09T06:32:23.589Z,27.30
2023-01-09T06:34:52.958Z,27.30
2023-01-09T06:37:22.190Z,27.30
2023-01-09T06:39:51.542Z,27.30
2023-01-09T06:42:20.879Z,27.30
2023-01-09T06:44:50.223Z,27.30
2023-01-09T06:47:19.523Z,27.40
2023-01-09T06:49:48.803Z,27.40
2023-01-09T06:52:18.003Z,27.50
2023-01-09T06:54:47.293Z,27.50
2023-01-09T06:57:17.801Z,27.50
2023-01-09T06:59:50.282Z,27.60
2023-01-09T07:02:22.892Z,27.60
2023-01-09T07:04:52.804Z,27.60
2023-01-09T07:07:23.845Z,27.60
2023-01-09T07:09:53.360Z,27.70
2023-01-09T07:12:23.079Z,27.70
2023-01-09T07:15:04.683Z,27.70
2023-01-09T07:17:34.646Z,27.80
2023-01-09T07:20:04.668Z,27.70
2023-01-09T07:22:34.008Z,27.80
2023-01-09T07:25:03.241Z,27.80
2023-01-09T07:27:32.527Z,27.80
2023-01-09T07:30:01.976Z,27.70
2023-01-09T07:32:31.414Z,27.80
2023-01-09T07:35:00.746Z,27.80
2023-01-09T07:37:45.448Z,27.80
2023-01-09T07:40:15.097Z,27.90
2023-01-09T07:42:44.500Z,27.90
2023-01-09T07:45:14.051Z,27.90
2023-01-09T07:47:45.310Z,27.90
2023-01-09T07:50:15.039Z,27.90
2023-01-09T07:52:47.505Z,28.00
2023-01-09T07:55:17.588Z,28.00
2023-01-09T07:57:51.624Z,28.00
2023-01-09T08:00:22.693Z,28.00
2023-01-09T08:02:56.405Z,28.10
2023-01-09T08:05:26.442Z,28.10
2023-01-09T08:07:55.951Z,28.10
2023-01-09T08:10:25.979Z,28.10
2023-01-09T08:12:55.297Z,28.10
2023-01-09T08:15:24.794Z,28.00
2023-01-09T08:17:54.225Z,28.00
2023-01-09T08:20:23.491Z,28.00
2023-01-09T08:22:55.139Z,28.00
2023-01-09T08:25:25.042Z,28.00
2023-01-09T08:27:54.820Z,28.00
2023-01-09T08:30:25.037Z,28.00
2023-01-09T08:32:56.142Z,28.00
2023-01-09T08:35:25.415Z,28.00
2023-01-09T08:37:54.965Z,28.00
2023-01-09T08:40:24.303Z,28.00
2023-01-09T08:43:13.147Z,28.00
2023-01-09T08:46:02.095Z,28.00
2023-01-09T08:48:31.353Z,28.00
2023-01-09T08:51:00.629Z,27.90
2023-01-09T08:53:31.105Z,27.90
2023-01-09T08:56:00.636Z,27.90
2023-01-09T08:58:29.982Z,27.90
2023-01-09T09:01:00.507Z,27.90
2023-01-09T09:03:29.864Z,27.90
2023-01-09T09:05:59.081Z,27.90
2023-01-09T09:08:28.340Z,27.90
2023-01-09T09:10:58.826Z,27.90
2023-01-09T09:13:30.064Z,27.90
2023-01-09T09:15:59.426Z,27.90
2023-01-09T09:18:28.878Z,27.90
2023-01-09T09:20:58.403Z,27.90
2023-01-09T09:23:30.339Z,27.80
2023-01-09T09:25:59.619Z,27.80
2023-01-09T09:28:28.845Z,27.70
2023-01-09T09:30:58.083Z,27.60
2023-01-09T09:33:27.387Z,27.60
2023-01-09T09:35:56.617Z,27.50
2023-01-09T09:38:25.909Z,27.50
2023-01-09T09:41:04.145Z,27.50
2023-01-09T09:44:14.063Z,27.40
2023-01-09T09:46:51.042Z,27.40
2023-01-09T09:49:30.094Z,27.40
2023-01-09T09:52:18.673Z,27.40
2023-01-09T09:54:52.937Z,27.40
2023-01-09T09:57:29.978Z,27.40
2023-01-09T09:59:59.320Z,27.30
2023-01-09T10:02:34.371Z,27.30
2023-01-09T10:05:12.910Z,27.30
2023-01-09T10:07:48.306Z,27.30
2023-01-09T10:10:27.735Z,27.20
2023-01-09T10:12:59.977Z,27.20
2023-01-09T10:15:49.953Z,27.20
2023-01-09T10:18:26.156Z,27.10
2023-01-09T10:21:22.911Z,27.10
2023-01-09T10:24:11.962Z,27.10
2023-01-09T10:26:49.922Z,27.00
2023-01-09T10:29:28.969Z,27.00
2023-01-09T10:32:25.741Z,27.00
2023-01-09T10:35:21.267Z,27.00
2023-01-09T10:37:54.858Z,26.90
2023-01-09T10:40:26.825Z,26.90
2023-01-09T10:43:00.494Z,26.90
2023-01-09T10:45:54.044Z,26.90
2023-01-09T10:48:29.024Z,26.80
2023-01-09T10:50:59.158Z,26.80
2023-01-09T10:53:35.928Z,26.80
2023-01-09T10:56:27.371Z,26.80
2023-01-09T10:58:58.246Z,26.80
2023-01-09T11:01:30.531Z,26.70
2023-01-09T11:04:00.745Z,26.70
2023-01-09T11:06:46.541Z,26.70
2023-01-09T11:09:18.320Z,26.70
2023-01-09T11:11:47.645Z,26.70
2023-01-09T11:14:33.275Z,26.60
2023-01-09T11:17:04.859Z,26.70
2023-01-09T11:19:35.600Z,26.70
2023-01-09T11:22:18.465Z,26.60
2023-01-09T11:24:47.830Z,26.70
2023-01-09T11:27:24.764Z,26.60
2023-01-09T11:30:17.147Z,26.70
2023-01-09T11:32:48.262Z,26.60
2023-01-09T11:35:25.483Z,26.60
2023-01-09T11:38:05.193Z,26.60
2023-01-09T11:40:51.471Z,26.60
2023-01-09T11:43:22.599Z,26.60
2023-01-09T11:46:01.391Z,26.50
2023-01-09T11:48:33.585Z,26.50
2023-01-09T11:51:04.601Z,26.50
2023-01-09T11:53:50.419Z,26.50
2023-01-09T11:56:20.019Z,26.50
2023-01-09T11:58:49.340Z,26.50
2023-01-09T12:01:19.350Z,26.40
2023-01-09T12:04:04.805Z,26.30
2023-01-09T12:07:04.452Z,26.30
2023-01-09T12:09:44.376Z,26.30
2023-01-09T12:12:26.542Z,26.30
2023-01-09T12:15:22.228Z,26.20
2023-01-09T12:18:12.599Z,26.20
2023-01-09T12:20:55.763Z,26.20
2023-01-09T12:23:31.317Z,26.20
2023-01-09T12:26:19.129Z,26.20
2023-01-09T12:28:52.735Z,26.20
2023-01-09T12:31:31.332Z,26.20
2023-01-09T12:34:22.638Z,26.10
2023-01-09T12:37:27.325Z,26.10
2023-01-09T12:40:17.625Z,26.10
2023-01-09T12:43:07.925Z,26.10
2023-01-09T12:45:44.666Z,26.10
2023-01-09T12:48:31.205Z,26.10
2023-01-09T12:51:13.603Z,26.10
2023-01-09T12:53:48.722Z,26.10
2023-01-09T12:56:25.403Z,26.10
2023-01-09T12:58:58.316Z,26.00
2023-01-09T13:01:31.580Z,26.00
2023-01-09T13:04:36.935Z,26.00
2023-01-09T13:07:17.752Z,26.00
2023-01-09T13:10:01.468Z,25.90
2023-01-09T13:12:34.633Z,25.90
2023-01-09T13:15:08.148Z,25.90
2023-01-09T13:17:50.958Z,25.90
2023-01-09T13:20:27.395Z,25.90
2023-01-09T13:22:57.195Z,25.80
2023-01-09T13:25:48.911Z,25.80
2023-01-09T13:28:22.861Z,25.70
2023-01-09T13:31:19.651Z,25.70
2023-01-09T13:33:55.791Z,25.70
2023-01-09T13:36:41.464Z,25.70
2023-01-09T13:39:20.113Z,25.70
2023-01-09T13:42:13.583Z,25.70
2023-01-09T13:44:43.442Z,25.70
2023-01-09T13:47:23.991Z,25.70
2023-01-09T13:49:54.140Z,25.70
2023-01-09T13:52:35.937Z,25.60
2023-01-09T13:55:26.768Z,25.60
2023-01-09T13:58:16.443Z,25.60
2023-01-09T14:00:46.576Z,25.60
2023-01-09T14:03:22.837Z,25.60
2023-01-09T14:05:52.897Z,25.60
2023-01-09T14:08:24.527Z,25.60
2023-01-09T14:10:59.335Z,25.60
2023-01-09T14:13:32.340Z,25.60
2023-01-09T14:16:11.733Z,25.60
2023-01-09T14:18:50.074Z,25.60
2023-01-09T14:21:20.729Z,25.60
2023-01-09T14:24:11.532Z,25.60
2023-01-09T14:26:55.171Z,25.60
2023-01-09T14:29:42.544Z,25.60
2023-01-09T14:32:30.990Z,25.60
2023-01-09T14:35:10.388Z,25.60
2023-01-09T14:37:41.019Z,25.60
2023-01-09T14:40:25.187Z,25.60
2023-01-09T14:42:57.091Z,25.60
2023-01-09T14:45:28.851Z,25.60
2023-01-09T14:48:02.320Z,25.60
2023-01-09T14:50:46.490Z,25.60
2023-01-09T14:53:24.999Z,25.60
2023-01-09T14:55:59.534Z,25.50
2023-01-09T14:58:34.424Z,25.50
2023-01-09T15:01:20.306Z,25.50
2023-01-09T15:03:54.851Z,25.40
2023-01-09T15:06:29.118Z,25.40
2023-01-09T15:09:04.622Z,25.50
2023-01-09T15:11:35.937Z,25.40
2023-01-09T15:14:06.160Z,25.50
2023-01-09T15:16:35.602Z,25.40
2023-01-09T15:19:09.473Z,25.40
2023-01-09T15:21:38.761Z,25.40
2023-01-09T15:24:31.476Z,25.40
2023-01-09T15:27:05.615Z,25.30
2023-01-09T15:29:34.994Z,25.30
2023-01-09T15:32:09.183Z,25.30
2023-01-09T15:34:39.033Z,25.30
2023-01-09T15:37:26.921Z,25.30
2023-01-09T15:39:56.981Z,25.30
2023-01-09T15:42:50.620Z,25.30
2023-01-09T15:45:22.872Z,25.30
2023-01-09T15:47:52.445Z,25.30
2023-01-09T15:50:29.503Z,25.30
2023-01-09T15:52:59.410Z,25.30
2023-01-09T15:55:29.746Z,25.30
2023-01-09T15:57:59.050Z,25.30
2023-01-09T16:00:43.294Z,25.30
2023-01-09T16:03:21.956Z,25.30
2023-01-09T16:05:59.366Z,25.30
2023-01-09T16:08:33.227Z,25.20
2023-01-09T16:11:06.701Z,25.20
2023-01-09T16:13:44.975Z,25.20
2023-01-09T16:16:15.585Z,25.20
2023-01-09T16:18:53.886Z,25.20
2023-01-09T16:21:39.772Z,25.20
2023-01-09T16:24:17.459Z,25.20
2023-01-09T16:26:46.788Z,25.20
2023-01-09T16:29:39.751Z,25.20
2023-01-09T16:32:18.991Z,25.20
2023-01-09T16:34:53.340Z,25.10
2023-01-09T16:37:24.437Z,25.10
2023-01-09T16:40:11.145Z,25.10
2023-01-09T16:42:59.990Z,25.10
2023-01-09T16:45:37.165Z,25.10
2023-01-09T16:48:15.435Z,25.00
2023-01-09T16:50:45.964Z,25.00
2023-01-09T16:53:19.648Z,25.00
2023-01-09T16:55:49.138Z,25.00
2023-01-09T16:58:25.482Z,25.00
2023-01-09T17:01:16.827Z,25.00
2023-01-09T17:03:46.435Z,25.00
2023-01-09T17:06:24.972Z,25.00
2023-01-09T17:08:54.451Z,25.00
2023-01-09T17:11:29.699Z,25.00
2023-01-09T17:13:59.325Z,25.00
2023-01-09T17:16:29.726Z,25.00
2023-01-09T17:18:59.114Z,24.90
2023-01-09T17:21:30.795Z,24.90
2023-01-09T17:24:21.154Z,24.90
2023-01-09T17:27:12.190Z,24.90
2023-01-09T17:29:41.523Z,24.90
2023-01-09T17:32:17.001Z,24.90
2023-01-09T17:34:46.450Z,24.90
2023-01-09T17:37:18.255Z,24.90
2023-01-09T17:39:48.047Z,24.90
2023-01-09T17:42:17.309Z,24.90
2023-01-09T17:44:46.524Z,25.00
2023-01-09T17:47:17.412Z,24.90
2023-01-09T17:49:46.707Z,25.00
2023-01-09T17:52:16.094Z,24.90
2023-01-09T17:54:45.375Z,24.90
2023-01-09T17:57:18.971Z,24.90
2023-01-09T17:59:48.326Z,24.90
2023-01-09T18:02:20.075Z,24.90
2023-01-09T18:04:49.409Z,24.90
2023-01-09T18:07:19.899Z,24.90
2023-01-09T18:09:49.299Z,24.90
2023-01-09T18:12:18.529Z,24.90
2023-01-09T18:14:48.014Z,24.90
2023-01-09T18:17:17.416Z,24.90
2023-01-09T18:19:47.815Z,24.90
2023-01-09T18:22:17.106Z,24.80
2023-01-09T18:24:46.413Z,24.90
2023-01-09T18:27:15.748Z,24.80
2023-01-09T18:29:45.107Z,24.90
2023-01-09T18:32:16.986Z,24.80
2023-01-09T18:34:46.372Z,24.80
2023-01-09T18:37:15.762Z,24.80
2023-01-09T18:39:45.094Z,24.80
2023-01-09T18:42:14.437Z,24.80
2023-01-09T18:44:43.767Z,24.80
2023-01-09T18:47:13.147Z,24.70
2023-01-09T18:49:42.559Z,24.70
2023-01-09T18:52:11.853Z,24.70
2023-01-09T18:54:41.100Z,24.70
2023-01-09T18:57:10.589Z,24.70
2023-01-09T18:59:39.886Z,24.70
2023-01-09T19:02:11.998Z,24.70
2023-01-09T19:04:41.243Z,24.70
2023-01-09T19:07:10.535Z,24.70
2023-01-09T19:09:40.238Z,24.70
2023-01-09T19:12:09.919Z,24.70
2023-01-09T19:14:39.669Z,24.70
2023-01-09T19:17:10.030Z,24.70
2023-01-09T19:19:39.565Z,24.60
2023-01-09T19:22:09.910Z,24.60
2023-01-09T19:24:40.489Z,24.60
2023-01-09T19:27:10.035Z,24.60
2023-01-09T19:29:39.717Z,24.60
2023-01-09T19:32:10.534Z,24.50
2023-01-09T19:34:40.018Z,24.60
2023-01-09T19:37:10.870Z,24.60
2023-01-09T19:39:40.334Z,24.50
2023-01-09T19:42:09.790Z,24.50
2023-01-09T19:44:39.963Z,24.50
2023-01-09T19:47:09.524Z,24.50
2023-01-09T19:49:39.371Z,24.50
2023-01-09T19:52:08.739Z,24.40
2023-01-09T19:54:37.929Z,24.40
2023-01-09T19:57:07.191Z,24.40
2023-01-09T19:59:36.550Z,24.40
2023-01-09T20:02:05.837Z,24.40
2023-01-09T20:04:35.151Z,24.40
2023-01-09T20:07:06.467Z,24.30
2023-01-09T20:09:35.863Z,24.30
2023-01-09T20:12:06.828Z,24.20
2023-01-09T20:14:38.544Z,24.20
2023-01-09T20:17:07.931Z,24.20
2023-01-09T20:19:37.244Z,24.10
2023-01-09T20:22:06.356Z,24.10
2023-01-09T20:24:35.631Z,24.10
2023-01-09T20:27:04.785Z,24.20
2023-01-09T20:29:34.040Z,24.20
2023-01-09T20:32:06.980Z,24.20
2023-01-09T20:34:35.792Z,24.20
2023-01-09T20:37:05.079Z,24.20
2023-01-09T20:39:34.399Z,24.20
2023-01-09T20:42:03.555Z,24.20
2023-01-09T20:44:32.723Z,24.20
2023-01-09T20:47:01.930Z,24.20
2023-01-09T20:49:31.287Z,24.20
2023-01-09T20:52:00.489Z,24.20
2023-01-09T20:54:29.622Z,24.20
2023-01-09T20:56:58.797Z,24.20
2023-01-09T20:59:28.096Z,24.20
2023-01-09T21:01:57.274Z,24.20
2023-01-09T21:04:26.596Z,24.20
2023-01-09T21:06:55.787Z,24.20
2023-01-09T21:09:26.744Z,24.20
2023-01-09T21:11:55.919Z,24.20
2023-01-09T21:14:25.119Z,24.10
2023-01-09T21:16:55.356Z,24.10
2023-01-09T21:19:25.003Z,24.10
2023-01-09T21:21:54.244Z,24.10
2023-01-09T21:24:23.378Z,24.10
2023-01-09T21:26:52.608Z,24.10
2023-01-09T21:29:22.088Z,24.10
2023-01-09T21:31:51.484Z,24.10
2023-01-09T21:34:22.232Z,24.10
2023-01-09T21:36:52.032Z,24.10
2023-01-09T21:39:23.276Z,24.10
2023-01-09T21:42:12.530Z,24.00
2023-01-09T21:45:01.495Z,24.00
2023-01-09T21:47:34.677Z,24.00
2023-01-09T21:50:03.833Z,24.00
2023-01-09T21:52:32.956Z,23.90
2023-01-09T21:55:02.269Z,23.90
2023-01-09T21:57:31.464Z,23.90
2023-01-09T22:00:03.819Z,23.90
2023-01-09T22:02:33.005Z,23.90
2023-01-09T22:05:02.592Z,23.90
2023-01-09T22:07:32.473Z,23.90
2023-01-09T22:10:01.731Z,24.00
2023-01-09T22:12:30.983Z,24.00
2023-01-09T22:15:00.219Z,24.00
2023-01-09T22:17:30.592Z,24.00
2023-01-09T22:19:59.824Z,24.00
2023-01-09T22:22:29.250Z,24.00
2023-01-09T22:25:00.664Z,24.00
2023-01-09T22:27:29.792Z,24.00
2023-01-09T22:29:58.918Z,23.90
2023-01-09T22:32:28.219Z,23.90
2023-01-09T22:34:57.351Z,23.90
2023-01-09T22:37:26.726Z,23.80
2023-01-09T22:39:55.911Z,23.80
2023-01-09T22:42:25.086Z,23.80
2023-01-09T22:44:54.210Z,23.80
2023-01-09T22:47:23.396Z,23.80
2023-01-09T22:49:53.449Z,23.80
2023-01-09T22:52:23.580Z,23.80
2023-01-09T22:54:52.881Z,23.80
2023-01-09T22:57:22.067Z,23.90
2023-01-09T22:59:51.235Z,23.80
2023-01-09T23:02:22.682Z,23.80
2023-01-09T23:04:51.997Z,23.80
2023-01-09T23:07:21.352Z,23.80
2023-01-09T23:09:50.599Z,23.90
2023-01-09T23:12:19.813Z,23.90
2023-01-09T23:14:48.934Z,23.80
2023-01-09T23:17:18.153Z,23.80
2023-01-09T23:19:47.373Z,23.80
2023-01-09T23:22:16.627Z,23.80
2023-01-09T23:24:45.773Z,23.80
2023-01-09T23:27:14.963Z,23.80
2023-01-09T23:29:44.104Z,23.80
2023-01-09T23:32:15.448Z,23.80
2023-01-09T23:34:45.693Z,23.90
2023-01-09T23:37:14.910Z,23.80
2023-01-09T23:39:44.158Z,23.80
2023-01-09T23:42:33.347Z,23.80
2023-01-09T23:45:02.541Z,23.80
2023-01-09T23:47:31.778Z,23.80
2023-01-09T23:50:01.015Z,23.70
2023-01-09T23:52:30.193Z,23.80
2023-01-09T23:54:59.410Z,23.70
2023-01-09T23:57:28.585Z,23.70
2023-01-09T23:59:57.736Z,23.70
